createdAt,value
2018-09-26T00:01:07.081Z,101054.34
2018-09-26T00:04:14.852Z,101049.61
2018-09-26T00:07:18.030Z,101034.64
2018-09-26T00:10:21.234Z,101029.78
2018-09-26T00:13:24.493Z,101028.66
2018-09-26T00:16:27.642Z,101033.86
2018-09-26T00:19:30.803Z,101030.32
2018-09-26T00:22:33.986Z,101036.29
2018-09-26T00:25:37.181Z,101027.87
2018-09-26T00:28:40.385Z,101025.92
2018-09-26T00:31:43.596Z,101029.36
2018-09-26T00:34:46.855Z,101037.63
2018-09-26T00:37:51.524Z,101043.19
2018-09-26T00:40:54.693Z,101050.97
2018-09-26T00:43:57.888Z,101052.28
2018-09-26T00:47:01.219Z,101049.87
2018-09-26T00:50:04.379Z,101046.25
2018-09-26T00:53:07.563Z,101052.38
2018-09-26T00:56:10.752Z,101052.84
2018-09-26T00:59:13.961Z,101041.43
2018-09-26T01:02:17.141Z,101040.05
2018-09-26T01:05:20.386Z,101048.38
2018-09-26T01:08:23.512Z,101043.22
2018-09-26T01:11:27.823Z,101032.79
2018-09-26T01:14:32.082Z,101030.49
2018-09-26T01:17:35.198Z,101039.59
2018-09-26T01:20:40.706Z,101042.62
2018-09-26T01:23:43.937Z,101042.98
2018-09-26T01:26:47.084Z,101044.48
2018-09-26T01:29:50.285Z,101037.16
2018-09-26T01:32:53.559Z,101046.44
2018-09-26T01:35:56.814Z,101063.34
2018-09-26T01:39:00.051Z,101059.97
2018-09-26T01:42:03.314Z,101048.27
2018-09-26T01:45:06.601Z,101039.19
2018-09-26T01:48:09.893Z,101043.55
2018-09-26T01:51:13.125Z,101029.99
2018-09-26T01:54:16.318Z,101023.14
2018-09-26T01:57:19.582Z,101028.62
2018-09-26T02:00:22.786Z,101023.08
2018-09-26T02:03:26.062Z,101009.78
2018-09-26T02:06:29.275Z,101007.86
2018-09-26T02:09:32.588Z,101002.48
2018-09-26T02:12:35.877Z,101007.48
2018-09-26T02:15:39.179Z,100992.81
2018-09-26T02:18:42.430Z,100991.66
2018-09-26T02:21:45.633Z,100988.88
2018-09-26T02:24:48.827Z,100976.13
2018-09-26T02:27:52.204Z,100970.19
2018-09-26T02:30:55.578Z,100974.33
2018-09-26T02:33:58.862Z,100962.61
2018-09-26T02:37:02.087Z,100962.51
2018-09-26T02:40:05.381Z,100948.63
2018-09-26T02:43:08.593Z,100943.71
2018-09-26T02:46:11.781Z,100929.77
2018-09-26T02:49:14.930Z,100921.22
2018-09-26T02:52:18.211Z,100926.09
2018-09-26T02:55:21.347Z,100934.86
2018-09-26T02:58:24.526Z,100939.63
2018-09-26T03:01:27.851Z,100931.38
2018-09-26T03:04:31.143Z,100937.93
2018-09-26T03:07:34.306Z,100942.95
2018-09-26T03:10:37.545Z,100943.16
2018-09-26T03:13:40.729Z,100939.03
2018-09-26T03:16:43.893Z,100941.00
2018-09-26T03:19:47.060Z,100948.45
2018-09-26T03:22:50.307Z,100947.86
2018-09-26T03:25:53.504Z,100951.56
2018-09-26T03:28:56.783Z,100944.20
2018-09-26T03:31:59.984Z,100937.03
2018-09-26T03:35:03.297Z,100921.63
2018-09-26T03:38:06.546Z,100917.83
2018-09-26T03:41:09.697Z,100913.98
2018-09-26T03:44:12.859Z,100902.53
2018-09-26T03:47:16.054Z,100907.57
2018-09-26T03:50:19.276Z,100902.28
2018-09-26T03:53:22.462Z,100912.21
2018-09-26T03:56:25.616Z,100920.58
2018-09-26T03:59:28.761Z,100928.85
2018-09-26T04:02:31.919Z,100914.33
2018-09-26T04:05:35.227Z,100909.19
2018-09-26T04:08:38.613Z,100911.37
2018-09-26T04:11:42.173Z,100917.70
2018-09-26T04:14:45.503Z,100923.80
2018-09-26T04:17:48.728Z,100925.95
2018-09-26T04:20:52.425Z,100923.47
2018-09-26T04:23:55.625Z,100920.04
2018-09-26T04:26:59.688Z,100931.69
2018-09-26T04:30:02.789Z,100927.27
2018-09-26T04:33:06.403Z,100909.28
2018-09-26T04:36:09.593Z,100909.17
2018-09-26T04:39:13.026Z,100906.82
2018-09-26T04:42:16.275Z,100903.95
2018-09-26T04:45:19.458Z,100913.40
2018-09-26T04:48:22.757Z,100903.33
2018-09-26T04:51:26.042Z,100899.88
2018-09-26T04:54:29.195Z,100915.88
2018-09-26T04:57:32.430Z,100933.38
2018-09-26T05:00:35.686Z,100934.28
2018-09-26T05:03:39.053Z,100940.00
2018-09-26T05:06:42.523Z,100942.95
2018-09-26T05:09:45.797Z,100935.56
2018-09-26T05:12:49.029Z,100941.70
2018-09-26T05:15:52.410Z,100928.22
2018-09-26T05:18:55.699Z,100938.55
2018-09-26T05:21:58.919Z,100953.39
2018-09-26T05:25:02.192Z,100956.41
2018-09-26T05:28:05.498Z,100968.57
2018-09-26T05:31:08.933Z,100965.97
2018-09-26T05:34:12.181Z,100968.73
2018-09-26T05:37:15.766Z,100961.30
2018-09-26T05:40:18.968Z,100961.12
2018-09-26T05:43:22.268Z,100951.55
2018-09-26T05:46:25.437Z,100948.31
2018-09-26T05:49:28.623Z,100957.20
2018-09-26T05:52:31.871Z,100952.76
2018-09-26T05:55:35.136Z,100961.84
2018-09-26T05:58:38.436Z,100959.46
2018-09-26T06:01:41.850Z,100947.68
2018-09-26T06:04:45.164Z,100942.94
2018-09-26T06:07:48.457Z,100948.52
2018-09-26T06:10:52.766Z,100940.27
2018-09-26T06:13:56.114Z,100928.11
2018-09-26T06:16:59.359Z,100914.27
2018-09-26T06:20:02.653Z,100918.97
2018-09-26T06:23:05.909Z,100920.67
2018-09-26T06:26:09.044Z,100923.22
2018-09-26T06:29:12.281Z,100938.92
2018-09-26T06:32:15.467Z,100962.50
2018-09-26T06:35:18.634Z,100964.94
2018-09-26T06:38:21.843Z,100976.56
2018-09-26T06:41:24.930Z,100963.44
2018-09-26T06:44:28.218Z,100952.58
2018-09-26T06:47:31.421Z,100940.70
2018-09-26T06:50:34.497Z,100945.19
2018-09-26T06:53:37.599Z,100941.75
2018-09-26T06:56:40.763Z,100917.54
2018-09-26T06:59:43.881Z,100916.22
2018-09-26T07:02:47.046Z,100948.77
2018-09-26T07:05:50.256Z,100969.50
2018-09-26T07:08:53.391Z,100976.01
2018-09-26T07:11:56.469Z,100977.95
2018-09-26T07:14:59.745Z,100975.91
2018-09-26T07:18:04.248Z,100976.92
2018-09-26T07:21:07.474Z,100981.55
2018-09-26T07:24:10.577Z,100971.94
2018-09-26T07:27:13.810Z,100966.39
2018-09-26T07:30:17.068Z,100967.65
2018-09-26T07:33:20.235Z,100972.30
2018-09-26T07:36:23.463Z,100975.10
2018-09-26T07:39:26.717Z,100972.93
2018-09-26T07:42:29.994Z,100963.84
2018-09-26T07:45:34.564Z,100963.47
2018-09-26T07:48:37.784Z,100958.56
2018-09-26T07:51:41.201Z,100962.03
2018-09-26T07:54:44.855Z,100969.77
2018-09-26T07:57:48.464Z,100972.27
2018-09-26T08:00:51.968Z,100977.80
2018-09-26T08:03:55.404Z,100975.85
2018-09-26T08:06:58.929Z,100970.72
2018-09-26T08:10:02.357Z,100969.36
2018-09-26T08:13:05.605Z,100969.51
2018-09-26T08:16:09.536Z,100963.55
2018-09-26T08:19:12.934Z,100955.62
2018-09-26T08:22:16.501Z,100948.51
2018-09-26T08:25:19.793Z,100948.36
2018-09-26T08:28:23.128Z,100960.44
2018-09-26T08:31:26.470Z,100955.47
2018-09-26T08:34:29.734Z,100954.86
2018-09-26T08:37:33.027Z,100958.22
2018-09-26T08:40:36.290Z,100958.34
2018-09-26T08:43:39.612Z,100945.91
2018-09-26T08:46:42.754Z,100941.31
2018-09-26T08:49:45.865Z,100949.63
2018-09-26T08:52:49.063Z,100954.87
2018-09-26T08:55:52.332Z,100954.73
2018-09-26T08:58:55.513Z,100968.05
2018-09-26T09:01:58.682Z,100957.80
2018-09-26T09:05:01.911Z,100954.02
2018-09-26T09:08:05.113Z,100953.61
2018-09-26T09:11:08.303Z,100950.41
2018-09-26T09:14:11.514Z,100945.59
2018-09-26T09:17:14.667Z,100941.05
2018-09-26T09:20:17.843Z,100928.52
2018-09-26T09:23:20.977Z,100927.53
2018-09-26T09:26:24.272Z,100930.38
2018-09-26T09:29:27.437Z,100926.40
2018-09-26T09:32:30.658Z,100926.45
2018-09-26T09:35:33.830Z,100915.05
2018-09-26T09:38:37.105Z,100917.47
2018-09-26T09:41:40.317Z,100921.03
2018-09-26T09:44:43.721Z,100913.03
2018-09-26T09:47:46.977Z,100911.73
2018-09-26T09:50:50.248Z,100916.52
2018-09-26T09:53:53.476Z,100913.73
2018-09-26T09:56:56.727Z,100913.06
2018-09-26T09:59:59.949Z,100907.20
2018-09-26T10:03:03.383Z,100908.98
2018-09-26T10:06:06.642Z,100901.21
2018-09-26T10:09:09.873Z,100901.53
2018-09-26T10:12:13.139Z,100886.95
2018-09-26T10:15:16.426Z,100880.48
2018-09-26T10:18:19.590Z,100885.55
2018-09-26T10:21:22.770Z,100887.79
2018-09-26T10:24:26.066Z,100892.67
2018-09-26T10:27:29.947Z,100892.23
2018-09-26T10:30:33.344Z,100891.42
2018-09-26T10:33:37.456Z,100883.00
2018-09-26T10:36:41.217Z,100867.05
2018-09-26T10:39:44.412Z,100868.93
2018-09-26T10:42:47.687Z,100854.33
2018-09-26T10:45:50.862Z,100854.84
2018-09-26T10:48:54.090Z,100856.02
2018-09-26T10:51:57.239Z,100857.16
2018-09-26T10:55:00.486Z,100853.35
2018-09-26T10:58:03.637Z,100851.09
2018-09-26T11:01:07.226Z,100845.66
2018-09-26T11:04:10.481Z,100836.30
2018-09-26T11:07:13.583Z,100845.74
2018-09-26T11:10:16.763Z,100845.42
2018-09-26T11:13:19.953Z,100844.02
2018-09-26T11:16:23.939Z,100848.89
2018-09-26T11:19:27.126Z,100850.53
2018-09-26T11:22:30.330Z,100837.64
2018-09-26T11:25:33.473Z,100840.67
2018-09-26T11:28:36.624Z,100840.55
2018-09-26T11:31:39.748Z,100836.00
2018-09-26T11:34:43.045Z,100839.81
2018-09-26T11:37:46.397Z,100835.55
2018-09-26T11:40:49.623Z,100834.86
2018-09-26T11:43:53.105Z,100830.84
2018-09-26T11:46:56.311Z,100821.89
2018-09-26T11:49:59.541Z,100819.81
2018-09-26T11:53:02.861Z,100810.88
2018-09-26T11:56:06.296Z,100810.07
2018-09-26T11:59:09.534Z,100805.22
2018-09-26T12:02:12.907Z,100796.20
2018-09-26T12:05:16.114Z,100793.71
2018-09-26T12:08:19.609Z,100794.38
2018-09-26T12:11:22.699Z,100798.17
2018-09-26T12:14:26.122Z,100800.34
2018-09-26T12:17:29.355Z,100803.66
2018-09-26T12:20:32.578Z,100800.19
2018-09-26T12:23:35.915Z,100791.59
2018-09-26T12:26:39.212Z,100788.55
2018-09-26T12:29:42.385Z,100783.63
2018-09-26T12:32:45.639Z,100768.77
2018-09-26T12:35:48.898Z,100771.92
2018-09-26T12:38:52.160Z,100771.72
2018-09-26T12:41:55.438Z,100773.69
2018-09-26T12:44:58.727Z,100765.87
2018-09-26T12:48:01.961Z,100769.50
2018-09-26T12:51:05.141Z,100746.16
2018-09-26T12:57:22.687Z,100758.08
2018-09-26T13:00:26.484Z,100748.70
2018-09-26T13:03:29.664Z,100752.96
2018-09-26T13:06:33.042Z,100747.66
2018-09-26T13:09:36.357Z,100745.01
2018-09-26T13:12:39.585Z,100731.70
2018-09-26T13:15:42.851Z,100731.76
2018-09-26T13:18:46.127Z,100726.93
2018-09-26T13:21:49.325Z,100710.76
2018-09-26T13:24:52.600Z,100706.62
2018-09-26T13:27:55.838Z,100740.08
2018-09-26T13:30:59.071Z,100740.00
2018-09-26T13:34:02.442Z,100723.06
2018-09-26T13:37:05.678Z,100716.28
2018-09-26T13:40:09.028Z,100716.57
2018-09-26T13:43:12.335Z,100719.34
2018-09-26T13:46:15.645Z,100716.48
2018-09-26T13:49:18.812Z,100719.81
2018-09-26T13:52:22.048Z,100720.73
2018-09-26T13:55:25.401Z,100710.87
2018-09-26T13:58:28.623Z,100698.13
2018-09-26T14:01:32.086Z,100693.45
2018-09-26T14:04:35.966Z,100716.90
2018-09-26T14:07:39.163Z,100695.52
2018-09-26T14:10:42.409Z,100676.16
2018-09-26T14:13:45.614Z,100688.61
2018-09-26T14:16:48.921Z,100698.08
2018-09-26T14:20:15.286Z,100700.11
2018-09-26T14:23:24.694Z,100700.78
2018-09-26T14:26:28.175Z,100677.77
2018-09-26T14:29:31.588Z,100665.83
2018-09-26T14:32:35.005Z,100649.42
2018-09-26T14:35:38.422Z,100646.72
2018-09-26T14:38:41.894Z,100620.52
2018-09-26T14:41:45.326Z,100624.91
2018-09-26T14:44:48.762Z,100620.95
2018-09-26T14:47:52.159Z,100582.02
2018-09-26T14:50:55.555Z,100555.02
2018-09-26T14:53:59.025Z,100551.67
2018-09-26T14:57:02.390Z,100541.14
2018-09-26T15:00:07.141Z,100587.38
2018-09-26T15:03:10.583Z,100569.66
2018-09-26T15:06:14.058Z,100503.16
2018-09-26T15:09:17.574Z,100533.33
2018-09-26T15:12:20.972Z,100593.21
2018-09-26T15:15:24.365Z,100577.45
2018-09-26T15:18:27.756Z,100503.19
2018-09-26T15:21:31.019Z,100568.41
2018-09-26T15:24:34.387Z,100571.05
2018-09-26T15:27:37.821Z,100564.86
2018-09-26T15:30:41.178Z,100578.42
2018-09-26T15:33:44.693Z,100702.76
2018-09-26T15:36:48.055Z,100676.00
2018-09-26T15:39:51.461Z,100557.95
2018-09-26T15:42:54.885Z,100490.50
2018-09-26T15:45:58.209Z,100562.74
2018-09-26T15:49:01.550Z,100539.81
2018-09-26T15:52:05.036Z,100592.64
2018-09-26T15:55:08.598Z,100595.50
2018-09-26T15:58:11.953Z,100550.70
2018-09-26T16:01:15.290Z,100635.95
2018-09-26T16:04:25.689Z,100672.20
2018-09-26T16:07:28.874Z,100640.05
2018-09-26T16:10:32.108Z,100613.25
2018-09-26T16:13:35.446Z,100619.10
2018-09-26T16:16:38.773Z,100606.58
2018-09-26T16:19:42.115Z,100600.73
2018-09-26T16:22:45.396Z,100578.61
2018-09-26T16:25:48.596Z,100568.55
2018-09-26T16:28:51.735Z,100577.52
2018-09-26T16:31:54.896Z,100572.40
2018-09-26T16:34:58.078Z,100582.48
2018-09-26T16:38:01.281Z,100588.08
2018-09-26T16:41:04.803Z,100551.41
2018-09-26T16:44:07.994Z,100515.03
2018-09-26T16:47:11.207Z,100570.05
2018-09-26T16:50:14.593Z,100620.73
2018-09-26T16:53:17.972Z,100617.57
2018-09-26T16:56:21.287Z,100608.87
2018-09-26T16:59:24.381Z,100604.48
2018-09-26T17:02:28.062Z,100603.69
2018-09-26T17:05:31.437Z,100594.34
2018-09-26T17:08:34.573Z,100596.61
2018-09-26T17:11:37.883Z,100608.07
2018-09-26T17:14:42.294Z,100605.84
2018-09-26T17:17:45.614Z,100604.49
2018-09-26T17:20:49.004Z,100606.85
2018-09-26T17:23:52.367Z,100609.30
2018-09-26T17:26:55.671Z,100612.63
2018-09-26T17:29:59.015Z,100610.48
2018-09-26T17:33:02.329Z,100612.94
2018-09-26T17:36:05.883Z,100610.90
2018-09-26T17:39:09.583Z,100623.77
2018-09-26T17:42:13.060Z,100618.88
2018-09-26T17:45:16.308Z,100621.14
2018-09-26T17:48:19.652Z,100613.66
2018-09-26T17:51:23.036Z,100622.75
2018-09-26T17:54:26.258Z,100622.06
2018-09-26T17:57:29.611Z,100623.19
2018-09-26T18:00:32.870Z,100630.63
2018-09-26T18:03:36.420Z,100635.73
2018-09-26T18:06:39.797Z,100631.61
2018-09-26T18:09:42.982Z,100627.91
2018-09-26T18:12:46.360Z,100635.62
2018-09-26T18:15:49.558Z,100637.94
2018-09-26T18:18:52.841Z,100643.58
2018-09-26T18:21:56.103Z,100638.92
2018-09-26T18:24:59.445Z,100639.94
2018-09-26T18:28:02.850Z,100640.89
2018-09-26T18:31:06.209Z,100646.28
2018-09-26T18:34:09.550Z,100642.88
2018-09-26T18:37:12.844Z,100644.74
2018-09-26T18:40:16.079Z,100641.08
2018-09-26T18:43:19.451Z,100631.60
2018-09-26T18:46:22.871Z,100633.55
2018-09-26T18:49:26.198Z,100641.97
2018-09-26T18:52:29.611Z,100645.86
2018-09-26T18:55:32.931Z,100641.67
2018-09-26T18:58:36.249Z,100635.59
2018-09-26T19:01:39.459Z,100643.27
2018-09-26T19:04:43.049Z,100644.37
2018-09-26T19:07:46.934Z,100642.46
2018-09-26T19:10:50.275Z,100645.57
2018-09-26T19:13:53.701Z,100648.06
2018-09-26T19:16:57.065Z,100652.67
2018-09-26T19:20:00.538Z,100657.83
2018-09-26T19:23:04.076Z,100652.65
2018-09-26T19:26:07.334Z,100654.66
2018-09-26T19:29:10.649Z,100648.04
2018-09-26T19:32:14.008Z,100659.02
2018-09-26T19:35:17.311Z,100656.03
2018-09-26T19:38:20.580Z,100651.34
2018-09-26T19:41:24.000Z,100651.76
2018-09-26T19:44:27.341Z,100656.59
2018-09-26T19:47:30.632Z,100653.27
2018-09-26T19:50:33.921Z,100655.78
2018-09-26T19:53:37.755Z,100654.03
2018-09-26T19:56:41.173Z,100654.48
2018-09-26T19:59:44.456Z,100661.20
2018-09-26T20:02:47.844Z,100670.27
2018-09-26T20:05:51.213Z,100668.75
2018-09-26T20:08:54.557Z,100668.41
2018-09-26T20:11:57.891Z,100670.22
2018-09-26T20:15:01.243Z,100671.17
2018-09-26T20:18:04.630Z,100669.90
2018-09-26T20:21:07.996Z,100672.58
2018-09-26T20:24:11.489Z,100672.68
2018-09-26T20:27:14.957Z,100670.28
2018-09-26T20:30:18.393Z,100674.78
2018-09-26T20:33:21.949Z,100668.94
2018-09-26T20:36:25.393Z,100667.66
2018-09-26T20:39:28.895Z,100671.95
2018-09-26T20:42:32.218Z,100671.31
2018-09-26T20:45:35.441Z,100673.86
2018-09-26T20:48:38.730Z,100672.76
2018-09-26T20:51:41.973Z,100667.83
2018-09-26T20:54:45.288Z,100676.67
2018-09-26T20:57:48.468Z,100674.27
2018-09-26T21:00:51.650Z,100669.05
2018-09-26T21:03:54.905Z,100673.42
2018-09-26T21:06:58.145Z,100677.22
2018-09-26T21:10:01.377Z,100678.14
2018-09-26T21:13:04.684Z,100678.30
2018-09-26T21:16:07.987Z,100676.14
2018-09-26T21:19:11.571Z,100671.55
2018-09-26T21:22:14.813Z,100673.52
2018-09-26T21:25:18.050Z,100682.58
2018-09-26T21:28:21.379Z,100679.88
2018-09-26T21:31:24.643Z,100684.72
2018-09-26T21:34:27.962Z,100685.34
2018-09-26T21:37:31.222Z,100679.42
2018-09-26T21:40:34.419Z,100677.98
2018-09-26T21:43:37.651Z,100679.52
2018-09-26T21:46:41.066Z,100679.81
2018-09-26T21:49:44.291Z,100681.60
2018-09-26T21:52:47.488Z,100676.00
2018-09-26T21:55:50.775Z,100667.57
2018-09-26T21:58:53.995Z,100667.78
2018-09-26T22:01:57.160Z,100666.83
2018-09-26T22:05:00.361Z,100678.61
2018-09-26T22:08:03.621Z,100673.77
2018-09-26T22:11:06.855Z,100676.34
2018-09-26T22:14:10.121Z,100676.45
2018-09-26T22:17:13.333Z,100684.55
2018-09-26T22:20:16.610Z,100691.89
2018-09-26T22:23:19.867Z,100690.02
2018-09-26T22:26:23.187Z,100693.69
2018-09-26T22:29:26.339Z,100692.75
2018-09-26T22:32:29.499Z,100690.12
2018-09-26T22:35:32.657Z,100686.61
2018-09-26T22:38:35.884Z,100694.02
2018-09-26T22:41:39.212Z,100696.83
2018-09-26T22:44:42.323Z,100699.98
2018-09-26T22:47:45.509Z,100701.06
2018-09-26T22:50:48.650Z,100700.47
2018-09-26T22:53:51.809Z,100701.30
2018-09-26T22:56:55.013Z,100700.23
2018-09-26T22:59:58.229Z,100689.79
2018-09-26T23:03:01.370Z,100688.25
2018-09-26T23:06:04.642Z,100681.84
2018-09-26T23:09:09.942Z,100680.89
2018-09-26T23:12:13.180Z,100682.91
2018-09-26T23:15:16.368Z,100676.02
2018-09-26T23:18:19.702Z,100678.64
2018-09-26T23:21:22.964Z,100688.81
2018-09-26T23:24:26.146Z,100687.77
2018-09-26T23:27:29.444Z,100685.28
2018-09-26T23:30:32.574Z,100683.97
2018-09-26T23:33:35.761Z,100682.90
2018-09-26T23:36:38.905Z,100681.25
2018-09-26T23:39:42.091Z,100668.53
2018-09-26T23:42:45.298Z,100671.63
2018-09-26T23:45:48.513Z,100675.31
2018-09-26T23:48:51.722Z,100665.80
2018-09-26T23:51:54.881Z,100662.84
2018-09-26T23:54:58.087Z,100662.78
2018-09-26T23:58:01.266Z,100666.30
